Time;durP1;ratioP1;P1;durP2;ratioP2;P2;SDS_P1;SDS_P2;PMS_P1;PMS_P2;Temp;Humidity;BMP_temperature;BMP_pressure;BME280_temperature;BME280_humidity;BME280_pressure;Samples;Min_cycle;Max_cycle;Signal;HPM_P1;HPM_P2
2022/10/20 00:01:53;;;;;;;;;11.00;10.67;;;;;20.81;79.93;-19762.81;4977146;27;45431;-74
2022/10/20 00:04:19;;;;;;;;;10.33;9.33;;;;;20.76;80.31;-19761.47;4993024;27;45506;-74
2022/10/20 00:06:44;;;;;;;;;11.33;10.33;;;;;20.87;79.95;-19764.53;4991285;27;45349;-74
2022/10/20 00:09:10;;;;;;;;;12.67;8.00;;;;;20.81;80.12;-19762.81;4988266;27;46237;-74
2022/10/20 00:11:35;;;;;;;;;10.67;8.33;;;;;20.69;80.25;-19759.75;4993871;27;45391;-74
2022/10/20 00:14:01;;;;;;;;;10.33;9.33;;;;;20.88;79.85;-19764.69;4993973;27;45946;-74
2022/10/20 00:16:29;;;;;;;;;10.67;10.67;;;;;20.87;80.28;-19764.53;4994343;27;45408;-74
2022/10/20 00:18:56;;;;;;;;;6.67;6.00;;;;;20.90;79.60;-19765.06;4975478;28;46723;-74
2022/10/20 00:21:24;;;;;;;;;7.00;7.00;;;;;20.77;80.00;-19761.75;4994558;28;45338;-74
2022/10/20 00:23:49;;;;;;;;;12.00;11.67;;;;;20.89;80.05;-19764.94;4994465;27;45432;-74
2022/10/20 00:26:20;;;;;;;;;8.00;8.00;;;;;20.85;79.89;-19763.88;4994009;27;45418;-74
2022/10/20 00:28:46;;;;;;;;;8.00;8.00;;;;;20.69;80.23;-19759.63;4986466;27;46656;-74
2022/10/20 00:31:12;;;;;;;;;9.67;9.67;;;;;20.87;80.14;-19764.53;4995454;27;45430;-74
2022/10/20 00:33:38;;;;;;;;;8.33;8.33;;;;;20.87;79.52;-19764.53;4994180;27;45588;-74
2022/10/20 00:36:05;;;;;;;;;8.00;8.00;;;;;20.85;79.52;-19764.00;5005126;28;45395;-74
2022/10/20 00:38:32;;;;;;;;;8.33;8.33;;;;;20.82;80.21;-19763.06;4994174;27;46296;-74
2022/10/20 00:41:02;;;;;;;;;8.00;5.33;;;;;20.83;79.94;-19763.34;4988037;28;45348;-74
2022/10/20 00:43:50;;;;;;;;;11.33;9.00;;;;;20.78;80.34;-19762.16;4980574;27;45401;-74
2022/10/20 00:46:19;;;;;;;;;11.00;10.33;;;;;20.79;79.84;-19762.28;4977025;28;45668;-74
2022/10/20 00:48:49;;;;;;;;;9.67;9.33;;;;;20.78;79.95;-19762.00;4986856;27;45481;-74
2022/10/20 00:51:18;;;;;;;;;10.33;10.33;;;;;20.78;79.86;-19762.00;4994050;27;45392;-74
2022/10/20 00:53:45;;;;;;;;;12.00;9.67;;;;;20.76;80.07;-19761.47;4986323;27;45456;-74
2022/10/20 00:56:11;;;;;;;;;13.33;10.33;;;;;20.75;80.05;-19761.34;4984699;28;45487;-74
2022/10/20 00:58:37;;;;;;;;;8.33;8.33;;;;;20.74;79.96;-19760.94;4986428;27;45534;-74
2022/10/20 01:01:03;;;;;;;;;10.67;9.00;;;;;20.75;80.63;-19761.22;4987989;27;45507;-73
2022/10/20 01:03:38;;;;;;;;;12.67;10.33;;;;;20.73;80.70;-19760.69;4996188;27;45531;-73
2022/10/20 01:06:04;;;;;;;;;7.00;7.00;;;;;20.70;80.83;-19759.88;4987817;27;45312;-73
2022/10/20 01:08:29;;;;;;;;;8.67;8.67;;;;;20.69;80.69;-19759.75;4993655;27;46098;-73
2022/10/20 01:11:20;;;;;;;;;8.67;8.67;;;;;20.62;80.97;-19758.00;5039870;27;45727;-73
2022/10/20 01:14:13;;;;;;;;;13.67;9.33;;;;;20.55;80.71;-19756.13;4974525;27;45226;-73
2022/10/20 01:17:02;;;;;;;;;11.33;8.33;;;;;20.64;80.81;-19758.53;4993613;27;45360;-73
2022/10/20 01:20:05;;;;;;;;;11.67;9.33;;;;;20.61;80.84;-19757.63;4989803;27;46251;-73
2022/10/20 01:22:49;;;;;;;;;11.33;8.00;;;;;20.58;80.96;-19756.94;5024388;27;45342;-73
2022/10/20 01:25:42;;;;;;;;;9.33;7.00;;;;;20.59;81.08;-19757.09;4992383;28;45552;-73
2022/10/20 01:28:21;;;;;;;;;6.00;4.00;;;;;20.60;80.76;-19757.47;4992841;27;45388;-73
2022/10/20 01:30:55;;;;;;;;;8.00;8.00;;;;;20.55;80.59;-19756.13;4992479;27;45504;-73
2022/10/20 01:33:55;;;;;;;;;6.00;5.00;;;;;20.57;80.89;-19756.69;4986425;27;45485;-73
2022/10/20 01:36:45;;;;;;;;;9.33;8.00;;;;;20.54;81.18;-19755.88;4995810;27;45479;-73
2022/10/20 01:39:24;;;;;;;;;8.00;7.00;;;;;20.51;81.21;-19754.94;4995747;27;45604;-73
2022/10/20 01:42:11;;;;;;;;;9.33;9.33;;;;;20.40;81.24;-19752.16;4995803;27;46000;-73
2022/10/20 01:44:38;;;;;;;;;9.00;7.67;;;;;20.31;81.03;-19749.88;4996103;27;45450;-74
2022/10/20 01:47:05;;;;;;;;;12.67;8.00;;;;;20.54;80.88;-19755.75;4994664;27;45734;-73
2022/10/20 01:49:31;;;;;;;;;10.00;9.00;;;;;20.13;80.88;-19745.06;4978751;28;45600;-73
2022/10/20 01:51:56;;;;;;;;;12.33;8.33;;;;;20.40;81.12;-19752.16;4995082;27;46291;-73
2022/10/20 01:54:25;;;;;;;;;7.67;7.00;;;;;20.53;81.17;-19755.47;4995905;27;45396;-73
2022/10/20 01:56:53;;;;;;;;;9.67;7.00;;;;;20.47;81.49;-19753.88;4991022;27;45775;-73
2022/10/20 01:59:43;;;;;;;;;8.00;8.00;;;;;20.22;81.20;-19747.47;4996331;27;45382;-73
2022/10/20 02:02:34;;;;;;;;;8.00;8.00;;;;;20.38;81.59;-19751.63;4995617;27;46271;-74
2022/10/20 02:05:16;;;;;;;;;7.33;7.33;;;;;20.24;81.36;-19748.16;4963356;28;45463;-73
2022/10/20 02:07:42;;;;;;;;;7.33;7.33;;;;;20.41;81.92;-19752.41;4973415;27;45644;-74
2022/10/20 02:10:26;;;;;;;;;8.00;8.00;;;;;20.41;81.64;-19752.53;4988564;27;45452;-74
2022/10/20 02:12:58;;;;;;;;;9.33;9.33;;;;;20.44;82.26;-19753.22;4991691;27;45428;-74
2022/10/20 02:15:27;;;;;;;;;8.00;8.00;;;;;20.48;82.08;-19754.28;4986979;27;45349;-74
2022/10/20 02:17:59;;;;;;;;;8.00;8.00;;;;;20.47;81.94;-19753.88;4993894;27;45397;-74
2022/10/20 02:20:27;;;;;;;;;8.00;7.00;;;;;20.52;82.02;-19755.22;4994432;27;45331;-74
2022/10/20 02:22:54;;;;;;;;;7.33;7.33;;;;;20.50;82.11;-19754.69;4977101;28;48278;-74
2022/10/20 02:25:20;;;;;;;;;7.33;7.33;;;;;20.54;82.19;-19755.88;4994119;27;45736;-75
2022/10/20 02:27:47;;;;;;;;;7.33;5.67;;;;;20.35;82.46;-19750.94;4995523;27;45317;-74
2022/10/20 02:30:16;;;;;;;;;7.67;7.67;;;;;20.36;82.33;-19751.22;4994917;27;45390;-74
2022/10/20 02:32:48;;;;;;;;;6.00;6.00;;;;;20.61;82.31;-19757.63;4993151;28;47129;-74
2022/10/20 02:35:17;;;;;;;;;8.00;7.00;;;;;20.67;82.32;-19759.22;4980101;27;46135;-74
2022/10/20 02:37:42;;;;;;;;;8.00;7.33;;;;;20.72;82.34;-19760.41;4995540;28;45687;-74
2022/10/20 02:40:08;;;;;;;;;4.00;4.00;;;;;20.57;82.01;-19756.69;4987722;27;45346;-75
2022/10/20 02:42:34;;;;;;;;;5.00;4.33;;;;;20.74;82.49;-19760.94;4993872;27;45544;-74
2022/10/20 02:45:00;;;;;;;;;7.67;6.00;;;;;20.76;82.36;-19761.47;4990546;27;45388;-74
2022/10/20 02:47:26;;;;;;;;;5.00;4.00;;;;;20.78;82.89;-19762.16;4974457;27;45606;-74
2022/10/20 02:49:51;;;;;;;;;7.67;5.00;;;;;20.81;83.29;-19762.81;4995700;27;45425;-74
2022/10/20 02:52:16;;;;;;;;;5.67;4.67;;;;;20.82;83.21;-19763.22;4995131;27;46015;-74
2022/10/20 02:54:42;;;;;;;;;5.00;5.00;;;;;20.84;82.90;-19763.63;4995004;27;45356;-74
2022/10/20 02:57:07;;;;;;;;;3.67;3.67;;;;;20.66;82.81;-19758.94;4974338;28;45369;-74
2022/10/20 02:59:32;;;;;;;;;5.00;4.00;;;;;20.75;82.82;-19761.34;4973063;28;45494;-74
2022/10/20 03:01:58;;;;;;;;;6.33;3.67;;;;;20.56;82.82;-19756.28;4985610;27;45751;-73
2022/10/20 03:04:23;;;;;;;;;4.00;3.00;;;;;20.89;82.98;-19764.94;4981745;27;45436;-73
2022/10/20 03:06:49;;;;;;;;;3.00;3.00;;;;;20.86;83.03;-19764.13;4988767;27;45485;-72
2022/10/20 03:09:14;;;;;;;;;6.00;3.00;;;;;21.08;82.42;-19770.00;4995112;27;45475;-72
2022/10/20 03:11:39;;;;;;;;;4.00;4.00;;;;;20.90;81.46;-19765.22;4994697;28;45365;-72
2022/10/20 03:14:05;;;;;;;;;3.67;3.00;;;;;21.16;81.81;-19771.88;4995050;27;45425;-72
2022/10/20 03:16:30;;;;;;;;;3.33;2.33;;;;;21.13;80.97;-19771.19;4995005;27;45449;-72
2022/10/20 03:18:56;;;;;;;;;3.00;3.00;;;;;20.85;82.25;-19764.00;4985841;28;45576;-73
2022/10/20 03:21:21;;;;;;;;;4.00;4.00;;;;;20.86;82.61;-19764.28;4996487;27;45925;-73
2022/10/20 03:23:47;;;;;;;;;3.33;3.33;;;;;20.48;83.39;-19754.28;4993560;27;45370;-73
2022/10/20 03:26:13;;;;;;;;;4.00;4.00;;;;;20.80;82.95;-19762.69;4990698;27;45345;-72
2022/10/20 03:28:39;;;;;;;;;3.00;3.00;;;;;20.91;83.06;-19765.47;4977024;28;45545;-73
2022/10/20 03:31:06;;;;;;;;;6.67;4.33;;;;;20.41;83.35;-19752.53;4994785;27;45417;-73
2022/10/20 03:33:31;;;;;;;;;7.00;4.00;;;;;20.84;83.64;-19763.63;4974381;28;45445;-73
2022/10/20 03:35:56;;;;;;;;;7.00;5.00;;;;;20.84;83.84;-19763.75;4990486;27;45493;-72
2022/10/20 03:38:22;;;;;;;;;6.00;4.00;;;;;20.62;83.85;-19758.00;4993026;28;45453;-73
2022/10/20 03:40:48;;;;;;;;;3.00;2.00;;;;;20.96;83.92;-19766.69;4994087;27;46026;-73
2022/10/20 03:43:14;;;;;;;;;3.00;2.00;;;;;20.90;83.62;-19765.22;4994465;27;45469;-72
2022/10/20 03:45:40;;;;;;;;;5.33;4.00;;;;;20.73;83.68;-19760.81;5005129;27;45652;-73
2022/10/20 03:48:06;;;;;;;;;4.00;4.00;;;;;20.85;84.00;-19764.00;5041163;27;45311;-73
2022/10/20 03:50:31;;;;;;;;;5.00;5.00;;;;;20.79;84.45;-19762.41;4994557;27;45454;-72
2022/10/20 03:52:56;;;;;;;;;3.67;3.67;;;;;20.91;85.06;-19765.34;4994447;27;45326;-73
2022/10/20 03:55:22;;;;;;;;;4.33;3.33;;;;;21.00;84.15;-19767.88;4991767;27;45302;-73
2022/10/20 03:57:47;;;;;;;;;8.00;4.00;;;;;21.09;84.75;-19770.13;4977045;28;45334;-73
2022/10/20 04:00:13;;;;;;;;;2.00;2.00;;;;;21.10;85.14;-19770.41;4984794;28;46134;-73
2022/10/20 04:02:42;;;;;;;;;3.67;3.00;;;;;20.93;85.36;-19766.00;4994505;27;45539;-74
2022/10/20 04:05:09;;;;;;;;;4.67;3.67;;;;;20.88;86.13;-19764.69;4994616;27;45355;-74
2022/10/20 04:07:35;;;;;;;;;4.00;4.00;;;;;20.86;87.05;-19764.28;4994043;27;45613;-74
2022/10/20 04:10:03;;;;;;;;;3.00;3.00;;;;;20.86;87.88;-19696.63;4975017;28;46177;-74
2022/10/20 04:12:28;;;;;;;;;5.00;2.00;;;;;20.84;86.99;-19763.63;4976776;28;45433;-73
2022/10/20 04:14:54;;;;;;;;;4.00;2.33;;;;;20.80;87.41;-19762.53;4994724;27;45432;-73
2022/10/20 04:17:19;;;;;;;;;5.00;3.00;;;;;20.77;87.99;-19688.84;4994945;27;45414;-73
2022/10/20 04:19:45;;;;;;;;;6.33;3.33;;;;;20.76;88.47;-19562.47;4988531;27;45558;-73
2022/10/20 04:22:10;;;;;;;;;4.33;4.00;;;;;20.76;88.79;-19680.69;4985634;28;45393;-73
2022/10/20 04:24:35;;;;;;;;;4.00;4.00;;;;;20.57;87.96;-19756.69;4969732;28;45507;-73
2022/10/20 04:27:01;;;;;;;;;2.00;2.00;;;;;20.57;88.09;-19756.53;4993770;27;45680;-73
2022/10/20 04:29:26;;;;;;;;;4.00;4.00;;;;;20.80;88.82;-19519.00;4992995;28;46296;-73
2022/10/20 04:31:52;;;;;;;;;8.67;4.33;;;;;20.66;89.53;-19657.16;4976097;28;45448;-73
2022/10/20 04:34:17;;;;;;;;;3.67;3.67;;;;;20.66;89.24;-19468.16;4976348;28;45367;-73
2022/10/20 04:36:42;;;;;;;;;5.33;5.33;;;;;20.64;89.81;-19370.44;4993965;27;45410;-73
2022/10/20 04:39:08;;;;;;;;;4.00;4.00;;;;;20.60;89.20;-19566.41;4989843;28;46351;-73
2022/10/20 04:41:33;;;;;;;;;7.67;5.00;;;;;20.18;89.91;-19584.34;4987424;27;45420;-74
2022/10/20 04:43:59;;;;;;;;;4.00;3.67;;;;;20.51;90.30;-19330.16;4992606;28;45413;-73
2022/10/20 04:46:25;;;;;;;;;3.67;3.67;;;;;20.54;90.21;-18887.16;4993092;27;45528;-73
2022/10/20 04:48:51;;;;;;;;;5.67;4.67;;;;;20.51;90.69;-18032.50;4992533;27;45552;-73
2022/10/20 04:51:17;;;;;;;;;3.33;3.33;;;;;20.49;90.29;-17992.63;4991045;28;45456;-73
2022/10/20 04:53:43;;;;;;;;;5.33;5.33;;;;;20.31;90.25;-17928.06;4977282;27;45556;-73
2022/10/20 04:56:12;;;;;;;;;8.00;4.67;;;;;20.41;90.37;-17975.19;4983023;27;45274;-73
2022/10/20 04:58:38;;;;;;;;;4.67;4.33;;;;;20.45;89.88;-17660.75;4982209;28;46343;-73
2022/10/20 05:01:08;;;;;;;;;6.33;4.33;;;;;20.28;91.06;-17026.50;4977231;27;45284;-73
2022/10/20 05:03:34;;;;;;;;;4.33;3.00;;;;;20.30;89.95;-17665.28;4976601;28;45676;-73
2022/10/20 05:06:16;;;;;;;;;6.00;5.00;;;;;20.44;89.63;-17789.28;4975064;27;45356;-73
2022/10/20 05:08:44;;;;;;;;;3.33;3.33;;;;;20.41;89.91;-17013.63;4976873;27;46337;-73
2022/10/20 05:11:10;;;;;;;;;3.00;2.00;;;;;20.33;89.30;-17989.06;4977648;27;45880;-72
2022/10/20 05:13:36;;;;;;;;;2.33;2.33;;;;;20.41;89.03;-18332.31;4971218;28;45370;-72
2022/10/20 05:16:02;;;;;;;;;4.00;2.00;;;;;20.39;88.29;-19009.56;4975607;27;45609;-73
2022/10/20 05:18:28;;;;;;;;;3.67;3.67;;;;;20.35;87.81;-19189.59;4977106;28;47833;-73
2022/10/20 05:20:54;;;;;;;;;5.33;2.00;;;;;20.38;88.74;-18901.63;4980021;27;45587;-73
2022/10/20 05:23:19;;;;;;;;;2.00;2.00;;;;;20.38;88.41;-18814.97;4986780;27;45464;-77
2022/10/20 05:25:44;;;;;;;;;4.00;2.00;;;;;20.23;88.32;-18603.88;4993971;27;45483;-76
2022/10/20 05:28:10;;;;;;;;;3.33;3.00;;;;;20.40;88.28;-19001.94;4995545;27;45473;-78
2022/10/20 05:30:36;;;;;;;;;6.00;2.00;;;;;20.16;87.65;-19331.94;5032403;27;45640;-76
2022/10/20 05:33:02;;;;;;;;;4.00;2.33;;;;;20.39;87.65;-19458.59;4990968;27;45673;-74
2022/10/20 05:35:27;;;;;;;;;4.00;2.25;;;;;20.38;87.91;-19287.66;4971457;28;45490;-75
2022/10/20 05:37:53;;;;;;;;;4.67;3.00;;;;;20.38;87.88;-19208.88;4982118;28;45491;-70
2022/10/20 05:40:19;;;;;;;;;2.00;2.00;;;;;20.37;87.62;-19001.03;4986256;27;45472;-71
2022/10/20 05:42:44;;;;;;;;;2.33;2.33;;;;;20.32;87.76;-19007.63;4989200;28;45550;-72
2022/10/20 05:45:09;;;;;;;;;2.00;2.00;;;;;20.34;87.02;-19186.84;4990732;27;45456;-71
2022/10/20 05:47:35;;;;;;;;;3.00;3.00;;;;;20.28;88.02;-18956.88;4978512;27;46208;-72
2022/10/20 05:50:00;;;;;;;;;3.67;3.00;;;;;20.28;87.85;-18867.47;4993522;27;45488;-72
2022/10/20 05:52:26;;;;;;;;;3.00;3.00;;;;;20.13;88.08;-18921.69;4984563;27;45412;-72
2022/10/20 05:54:51;;;;;;;;;6.00;3.00;;;;;20.23;88.37;-18527.63;4984252;27;45475;-72
2022/10/20 05:57:17;;;;;;;;;4.00;4.00;;;;;20.23;88.47;-18777.19;4964205;28;46133;-72
2022/10/20 05:59:42;;;;;;;;;5.67;2.67;;;;;20.18;87.89;-18615.66;4984860;27;45459;-72
2022/10/20 06:02:09;;;;;;;;;5.00;2.67;;;;;20.10;88.63;-18621.53;4991684;27;45687;-80
2022/10/20 06:04:35;;;;;;;;;2.33;1.00;;;;;20.07;88.56;-18300.66;4989157;27;45436;-81
2022/10/20 06:07:00;;;;;;;;;4.33;3.00;;;;;20.03;88.95;-18239.41;4990653;27;45901;-81
2022/10/20 06:09:26;;;;;;;;;3.00;2.00;;;;;19.88;89.20;-18217.28;4969668;27;45458;-80
2022/10/20 06:11:52;;;;;;;;;3.00;3.00;;;;;19.88;88.74;-18175.41;4978926;28;45558;-81
2022/10/20 06:14:18;;;;;;;;;3.33;3.33;;;;;19.95;89.57;-18135.13;4999958;27;45539;-80
2022/10/20 06:16:43;;;;;;;;;2.67;2.67;;;;;19.91;89.28;-17685.19;4992733;27;45414;-81
2022/10/20 06:19:09;;;;;;;;;1.00;0.67;;;;;20.02;88.76;-18029.16;4985093;28;45553;-81
2022/10/20 06:21:36;;;;;;;;;2.00;1.33;;;;;19.90;89.09;-18267.63;4980132;27;45740;-80
2022/10/20 06:24:04;;;;;;;;;3.25;2.50;;;;;19.96;89.17;-18158.84;4976242;28;45623;-81
2022/10/20 06:26:35;;;;;;;;;5.00;3.00;;;;;20.02;89.24;-18170.94;4998128;27;45482;-80
2022/10/20 06:29:01;;;;;;;;;7.33;3.00;;;;;19.95;88.65;-18355.47;4992082;27;45421;-81
2022/10/20 06:31:29;;;;;;;;;4.33;3.00;;;;;20.03;88.75;-18525.56;4997762;27;45367;-81
2022/10/20 06:33:56;;;;;;;;;3.00;3.00;;;;;20.02;88.31;-18661.69;4996066;27;45327;-81
2022/10/20 06:36:23;;;;;;;;;4.67;2.33;;;;;20.04;88.58;-18672.66;4977159;27;46176;-80
2022/10/20 06:38:55;;;;;;;;;3.00;3.00;;;;;20.06;88.49;-18497.28;4979621;27;45429;-80
2022/10/20 06:41:21;;;;;;;;;2.00;2.00;;;;;20.06;88.12;-18846.41;4987051;27;45589;-80
2022/10/20 06:43:46;;;;;;;;;2.33;2.33;;;;;20.07;87.66;-18838.78;4990655;27;45562;-80
2022/10/20 06:46:15;;;;;;;;;2.00;2.00;;;;;19.86;88.02;-18668.19;4982052;28;46938;-80
2022/10/20 06:48:41;;;;;;;;;3.00;3.00;;;;;20.08;88.61;-18673.66;4983612;27;45574;-80
2022/10/20 06:51:11;;;;;;;;;3.67;3.00;;;;;20.06;88.56;-18639.03;4990404;27;45389;-79
2022/10/20 06:53:37;;;;;;;;;3.00;3.00;;;;;20.07;87.89;-18673.28;4992428;28;45498;-80
2022/10/20 06:56:09;;;;;;;;;5.00;2.00;;;;;19.87;88.07;-19038.53;4990391;27;45536;-79
2022/10/20 06:58:36;;;;;;;;;3.00;3.00;;;;;20.03;88.39;-18601.56;4985942;27;45568;-78
2022/10/20 07:01:08;;;;;;;;;2.67;2.67;;;;;19.93;88.25;-18683.06;4992963;27;45725;-75
2022/10/20 07:03:35;;;;;;;;;1.33;1.00;;;;;19.99;87.18;-19212.06;4992808;27;45231;-75
2022/10/20 07:06:01;;;;;;;;;4.33;3.00;;;;;19.95;87.04;-19302.88;4992621;27;45514;-75
2022/10/20 07:08:28;;;;;;;;;3.00;3.00;;;;;19.90;87.63;-19104.91;4981159;28;45508;-76
2022/10/20 07:11:08;;;;;;;;;3.00;3.00;;;;;19.88;88.20;-18679.19;4993517;28;45825;-75
2022/10/20 07:13:35;;;;;;;;;3.00;3.00;;;;;19.87;88.39;-18592.44;4984529;27;45294;-77
2022/10/20 07:16:02;;;;;;;;;3.67;3.67;;;;;19.85;88.43;-18662.81;5061905;28;45583;-74
2022/10/20 07:18:28;;;;;;;;;6.00;4.67;;;;;19.84;88.58;-18366.03;4995235;27;45439;-74
2022/10/20 07:21:14;;;;;;;;;3.33;3.33;;;;;19.79;88.12;-18351.81;5062672;27;45477;-74
2022/10/20 07:23:40;;;;;;;;;5.00;3.33;;;;;19.78;88.91;-18445.91;4989093;27;45620;-74
2022/10/20 07:26:27;;;;;;;;;3.00;3.00;;;;;19.75;88.95;-18098.81;4994929;28;46784;-74
2022/10/20 07:28:56;;;;;;;;;4.00;4.00;;;;;19.63;88.87;-18308.53;4993706;28;45524;-74
2022/10/20 07:31:27;;;;;;;;;3.00;3.00;;;;;19.75;89.05;-17975.47;4994977;27;45381;-74
2022/10/20 07:33:53;;;;;;;;;3.00;2.00;;;;;19.72;88.96;-17993.13;4995419;27;45521;-74
2022/10/20 07:36:30;;;;;;;;;8.33;3.67;;;;;19.65;89.24;-18151.63;4976472;28;45961;-74
2022/10/20 07:38:57;;;;;;;;;3.67;2.67;;;;;19.71;88.93;-18370.84;4994506;27;45368;-74
2022/10/20 07:41:24;;;;;;;;;4.00;3.67;;;;;19.72;88.92;-18100.72;4994014;28;45405;-74
2022/10/20 07:43:50;;;;;;;;;2.33;1.33;;;;;19.53;88.95;-18334.97;4994917;27;45405;-74
2022/10/20 07:46:16;;;;;;;;;1.00;1.00;;;;;19.75;88.38;-18253.75;4993831;27;45419;-77
2022/10/20 07:48:42;;;;;;;;;2.33;2.33;;;;;19.77;87.85;-18841.97;4991353;27;45445;-77
2022/10/20 07:51:25;;;;;;;;;1.67;1.00;;;;;19.60;88.45;-18764.38;4970262;28;45365;-77
2022/10/20 07:54:06;;;;;;;;;1.00;1.00;;;;;19.80;87.71;-18651.06;4977866;27;45300;-75
2022/10/20 07:56:40;;;;;;;;;2.00;2.00;;;;;19.87;87.60;-18650.06;4984073;27;47146;-75
2022/10/20 07:59:07;;;;;;;;;2.00;2.00;;;;;19.65;88.22;-18497.91;4990777;27;45364;-75
2022/10/20 08:01:34;;;;;;;;;3.00;3.00;;;;;19.71;88.05;-18853.56;4987066;27;45429;-76
2022/10/20 08:03:59;;;;;;;;;3.67;2.67;;;;;19.75;87.40;-18922.66;4982782;27;45528;-75
2022/10/20 08:06:25;;;;;;;;;2.00;2.00;;;;;19.90;86.74;-19658.41;4980041;27;45999;-74
2022/10/20 08:08:51;;;;;;;;;1.00;1.00;;;;;20.09;87.02;-19647.56;4986462;27;45354;-75
2022/10/20 08:11:17;;;;;;;;;3.00;3.00;;;;;20.18;86.16;-19746.53;4992052;27;45724;-74
2022/10/20 08:13:42;;;;;;;;;3.00;3.00;;;;;20.24;86.16;-19748.16;4991467;27;45545;-75
2022/10/20 08:16:10;;;;;;;;;2.67;2.33;;;;;20.27;85.68;-19748.81;4988508;27;45575;-75
2022/10/20 08:18:36;;;;;;;;;1.33;1.33;;;;;20.13;86.45;-19745.22;4997419;27;45460;-75
2022/10/20 08:21:09;;;;;;;;;2.67;2.67;;;;;20.35;86.09;-19750.94;4988390;27;46721;-74
2022/10/20 08:23:37;;;;;;;;;4.00;2.33;;;;;20.42;85.87;-19752.69;4995011;27;45441;-74
2022/10/20 08:26:03;;;;;;;;;2.00;2.00;;;;;20.39;85.31;-19751.88;5004793;27;46164;-74
2022/10/20 08:28:28;;;;;;;;;3.33;3.00;;;;;20.29;84.93;-19749.34;4989380;28;45455;-74
2022/10/20 08:30:53;;;;;;;;;2.00;2.00;;;;;20.41;85.00;-19752.53;5032009;28;45464;-74
2022/10/20 08:33:19;;;;;;;;;3.00;3.00;;;;;20.45;85.18;-19753.47;4994456;28;45524;-75
2022/10/20 08:35:44;;;;;;;;;3.00;2.00;;;;;20.45;85.16;-19753.47;4992126;27;45420;-75
2022/10/20 08:38:09;;;;;;;;;1.67;1.67;;;;;20.53;85.27;-19755.47;4993676;27;45653;-74
2022/10/20 08:40:39;;;;;;;;;5.00;5.00;;;;;20.54;84.36;-19755.75;4976485;28;45370;-75
2022/10/20 08:43:06;;;;;;;;;3.00;3.00;;;;;20.40;84.60;-19752.28;4974747;28;45499;-75
2022/10/20 08:45:33;;;;;;;;;1.33;1.33;;;;;20.59;83.82;-19757.09;4974601;28;47396;-74
2022/10/20 08:47:59;;;;;;;;;3.33;3.00;;;;;20.59;83.92;-19757.09;5025418;27;45434;-73
2022/10/20 08:50:27;;;;;;;;;3.00;1.33;;;;;20.63;83.74;-19758.16;4993004;27;45483;-73
2022/10/20 08:52:59;;;;;;;;;5.67;2.00;;;;;20.64;83.84;-19758.41;4993660;28;45514;-74
2022/10/20 08:55:30;;;;;;;;;3.67;2.00;;;;;20.68;84.17;-19759.47;4990316;27;45942;-73
2022/10/20 08:58:02;;;;;;;;;1.00;1.00;;;;;20.69;83.28;-19759.63;4966072;28;45505;-74
2022/10/20 09:00:29;;;;;;;;;4.00;1.00;;;;;20.76;82.97;-19761.59;4978073;28;45675;-74
2022/10/20 09:02:59;;;;;;;;;3.00;3.00;;;;;20.80;82.90;-19762.53;4992511;27;45402;-77
2022/10/20 09:05:30;;;;;;;;;3.67;2.33;;;;;20.73;82.20;-19760.69;4981910;27;45607;-82
2022/10/20 09:07:56;;;;;;;;;2.00;1.00;;;;;20.84;82.65;-19763.75;4993209;28;45393;-80
2022/10/20 09:10:27;;;;;;;;;2.00;2.00;;;;;20.82;83.15;-19763.22;4993795;28;45531;-78
2022/10/20 09:12:53;;;;;;;;;2.33;1.00;;;;;20.69;82.69;-19759.63;4990553;28;45389;-82
2022/10/20 09:15:20;;;;;;;;;2.00;2.00;;;;;20.85;82.04;-19764.00;4984451;27;45980;-78
2022/10/20 09:17:52;;;;;;;;;4.33;2.67;;;;;21.06;82.59;-19769.34;5000117;27;45464;-78
2022/10/20 09:20:30;;;;;;;;;1.50;1.50;;;;;20.98;81.53;-19767.22;4981709;28;45822;-79
2022/10/20 09:22:55;;;;;;;;;6.00;3.00;;;;;21.41;81.22;-19778.41;4984330;28;45476;-80
2022/10/20 09:25:26;;;;;;;;;2.00;2.00;;;;;21.60;80.22;-19783.31;4973272;28;46239;-79
2022/10/20 09:27:52;;;;;;;;;2.50;1.50;;;;;21.53;79.11;-19781.47;4986240;28;45448;-79
2022/10/20 09:30:25;;;;;;;;;1.50;1.50;;;;;21.95;77.98;-19792.50;5004646;27;45575;-79
2022/10/20 09:32:51;;;;;;;;;2.00;2.00;;;;;22.06;77.32;-19795.28;4979747;28;45549;-78
2022/10/20 09:35:24;;;;;;;;;2.00;2.00;;;;;22.75;75.57;-19813.25;4986612;28;45426;-76
2022/10/20 09:37:57;;;;;;;;;2.00;2.00;;;;;23.67;74.30;-19837.16;4994904;27;45371;-80
2022/10/20 09:40:25;;;;;;;;;1.25;1.25;;;;;24.64;69.85;-19862.22;4994767;28;45614;-78
2022/10/20 09:43:14;;;;;;;;;3.00;3.00;;;;;26.40;65.55;-19907.63;5013021;27;45413;-76
2022/10/20 09:45:54;;;;;;;;;2.00;2.00;;;;;27.57;61.09;-19938.03;4959463;28;47190;-77
2022/10/20 09:48:25;;;;;;;;;1.00;1.00;;;;;28.83;57.25;-19970.34;5006816;27;45930;-76
2022/10/20 09:50:56;;;;;;;;;3.00;2.25;;;;;29.91;54.52;-19998.13;4999772;27;45366;-76
2022/10/20 09:53:29;;;;;;;;;1.75;1.75;;;;;31.01;51.32;-20026.25;4982817;27;45552;-81
2022/10/20 09:55:55;;;;;;;;;2.00;1.00;;;;;31.03;49.50;-20026.91;4990760;27;45530;-73
2022/10/20 09:58:31;;;;;;;;;0.25;0.25;;;;;31.42;48.68;-20036.91;4996012;27;45479;-77
2022/10/20 10:01:13;;;;;;;;;1.75;1.75;;;;;32.04;47.16;-20052.75;4990421;27;45491;-75
2022/10/20 10:03:45;;;;;;;;;1.00;1.00;;;;;33.20;44.97;-20082.38;4981452;27;45454;-75
2022/10/20 10:06:25;;;;;;;;;0.25;0.25;;;;;33.67;44.07;-20094.28;4973388;28;48266;-76
2022/10/20 10:08:50;;;;;;;;;0.25;0.25;;;;;34.72;42.49;-20121.06;4978174;28;45824;-76
2022/10/20 10:11:19;;;;;;;;;1.00;0.25;;;;;35.21;41.52;-20133.59;4996244;27;45388;-74
2022/10/20 10:13:48;;;;;;;;;0.00;0.00;;;;;35.35;40.86;-20137.25;4996901;27;45410;-76
2022/10/20 10:16:18;;;;;;;;;0.00;0.00;;;;;36.32;39.12;-20162.00;4986141;27;45456;-73
2022/10/20 10:18:46;;;;;;;;;1.50;0.75;;;;;36.97;37.96;-20176.38;4978082;27;45566;-73
2022/10/20 10:21:17;;;;;;;;;0.75;0.00;;;;;36.40;36.72;-18783.09;4991992;28;45531;-73
2022/10/20 10:23:51;;;;;;;;;0.00;0.00;;;;;33.97;39.40;-18039.50;4990851;27;45430;-74
2022/10/20 10:26:46;;;;;;;;;0.50;0.50;;;;;32.05;42.40;-19366.38;4993661;27;46684;-73
2022/10/20 10:29:28;;;;;;;;;1.75;1.75;;;;;30.56;45.59;-20012.81;5000054;27;45676;-72
2022/10/20 10:32:14;;;;;;;;;2.00;0.00;;;;;29.40;46.97;-19984.97;5032743;27;45736;-73
2022/10/20 10:35:01;;;;;;;;;0.75;0.75;;;;;28.33;48.65;-19957.41;4995974;27;45871;-73
2022/10/20 10:37:29;;;;;;;;;0.25;0.25;;;;;27.52;50.08;-19936.56;4995140;27;45404;-73
2022/10/20 10:39:55;;;;;;;;;0.50;0.50;;;;;26.89;51.40;-19920.47;4983622;27;45810;-71
2022/10/20 10:42:58;;;;;;;;;1.00;1.00;;;;;26.35;52.35;-19906.31;4995711;27;45390;-71
2022/10/20 10:45:45;;;;;;;;;0.75;0.75;;;;;25.84;53.46;-19893.34;5030876;28;45394;-72
2022/10/20 10:48:25;;;;;;;;;0.75;0.00;;;;;25.44;54.13;-19883.03;5018329;28;48255;-72
2022/10/20 10:50:57;;;;;;;;;1.75;1.00;;;;;24.85;55.88;-19867.66;5036210;28;45477;-72
2022/10/20 10:53:26;;;;;;;;;0.75;0.00;;;;;24.81;56.26;-19866.59;5034758;28;45504;-72
2022/10/20 10:56:34;;;;;;;;;2.50;0.00;;;;;24.60;56.76;-19861.31;5036070;28;45477;-72
2022/10/20 10:59:26;;;;;;;;;0.00;0.00;;;;;24.43;56.99;-19856.78;5023119;28;45755;-70
2022/10/20 11:02:14;;;;;;;;;0.00;0.00;;;;;24.37;57.17;-19855.34;5035798;28;45335;-73
2022/10/20 11:05:10;;;;;;;;;0.00;0.00;;;;;24.49;58.26;-19858.25;5024186;28;45491;-73
2022/10/20 11:08:18;;;;;;;;;2.00;0.75;;;;;26.93;53.99;-19921.53;5035861;28;45339;-73
2022/10/20 11:11:26;;;;;;;;;0.75;0.00;;;;;29.69;49.95;-19992.47;4952419;28;46063;-73
2022/10/20 11:14:03;;;;;;;;;2.00;0.00;;;;;31.99;44.27;-20051.31;4956201;28;45499;-77
2022/10/20 11:16:40;;;;;;;;;0.50;0.25;;;;;32.50;42.92;-20064.41;4954415;28;45482;-77
2022/10/20 11:19:20;;;;;;;;;1.00;1.00;;;;;33.76;40.67;-20096.63;4947377;28;45529;-77
2022/10/20 11:22:13;;;;;;;;;0.00;0.00;;;;;34.73;38.91;-19431.81;4996041;28;47023;-77
2022/10/20 11:24:48;;;;;;;;;0.50;0.50;;;;;34.99;37.42;-17718.16;5015858;28;45614;-78
2022/10/20 11:27:24;;;;;;;;;1.50;0.00;;;;;34.80;38.12;-17370.03;5015577;28;45509;-77
2022/10/20 11:30:04;;;;;;;;;2.00;0.00;;;;;34.38;38.51;-16673.50;5015680;28;45366;-77
2022/10/20 11:32:35;;;;;;;;;1.00;0.00;;;;;33.04;39.40;-15273.75;5014748;28;47514;-78
2022/10/20 11:35:28;;;;;;;;;0.00;0.00;;;;;32.02;41.47;-16968.38;5020795;28;45479;-78
2022/10/20 11:38:20;;;;;;;;;0.00;0.00;;;;;31.39;42.06;-16955.25;5011931;28;45544;-80
2022/10/20 11:40:54;;;;;;;;;0.25;0.25;;;;;31.02;43.61;-18315.41;5018613;28;45623;-75